createdAt,value
2023-03-26T00:01:19.274Z,7.88
2023-03-26T00:03:47.364Z,6.70
2023-03-26T00:06:17.060Z,8.30
2023-03-26T00:08:45.818Z,8.50
2023-03-26T00:11:17.016Z,7.28
2023-03-26T00:13:45.139Z,7.80
2023-03-26T00:16:15.363Z,8.57
2023-03-26T00:18:43.838Z,12.00
2023-03-26T00:21:14.684Z,7.45
2023-03-26T00:23:42.337Z,7.13
2023-03-26T00:26:10.561Z,6.70
2023-03-26T00:28:40.696Z,7.45
2023-03-26T00:31:10.606Z,7.97
2023-03-26T00:33:40.675Z,6.65
2023-03-26T00:36:11.900Z,7.35
2023-03-26T00:38:39.487Z,6.55
2023-03-26T00:41:17.811Z,6.70
2023-03-26T00:43:46.939Z,6.85
2023-03-26T00:46:14.615Z,8.70
2023-03-26T00:48:46.001Z,7.47
2023-03-26T00:51:16.176Z,8.45
2023-03-26T00:53:45.979Z,7.13
2023-03-26T00:56:14.087Z,7.35
2023-03-26T00:58:41.860Z,7.75
2023-03-26T01:01:16.364Z,7.53
2023-03-26T01:04:00.963Z,6.65
2023-03-26T01:06:35.918Z,8.00
2023-03-26T01:09:21.724Z,7.25
2023-03-26T01:11:50.241Z,8.52
2023-03-26T01:14:23.519Z,7.53
2023-03-26T01:16:55.509Z,7.22
2023-03-26T01:19:57.012Z,9.50
2023-03-26T01:22:27.158Z,7.65
2023-03-26T01:24:56.454Z,7.07
2023-03-26T01:27:46.616Z,9.93
2023-03-26T01:30:43.682Z,5.90
2023-03-26T01:33:18.560Z,6.90
2023-03-26T01:35:55.061Z,6.57
2023-03-26T01:38:46.885Z,6.72
2023-03-26T01:41:29.542Z,6.93
2023-03-26T01:43:57.951Z,6.68
2023-03-26T01:46:27.145Z,8.13
2023-03-26T01:48:55.483Z,7.32
2023-03-26T01:51:29.283Z,7.18
2023-03-26T01:53:58.170Z,6.80
2023-03-26T01:56:35.875Z,6.82
2023-03-26T01:59:27.153Z,7.80
2023-03-26T02:02:08.941Z,7.93
2023-03-26T02:04:54.584Z,7.47
2023-03-26T02:07:43.618Z,6.68
2023-03-26T02:10:40.510Z,7.00
2023-03-26T02:13:08.094Z,6.80
2023-03-26T02:15:35.585Z,7.70
2023-03-26T02:18:04.070Z,8.75
2023-03-26T02:20:31.708Z,8.45
2023-03-26T02:22:59.826Z,6.38
2023-03-26T02:25:28.089Z,7.50
2023-03-26T02:27:57.627Z,12.23
2023-03-26T02:30:26.357Z,6.05
2023-03-26T02:32:59.345Z,5.85
2023-03-26T02:35:32.006Z,6.72
2023-03-26T02:38:02.007Z,5.47
2023-03-26T02:40:29.649Z,7.90
2023-03-26T02:42:58.783Z,6.18
2023-03-26T02:45:28.236Z,7.78
2023-03-26T02:48:27.678Z,5.70
2023-03-26T02:54:09.831Z,5.60
2023-03-26T02:56:51.766Z,5.68
2023-03-26T02:59:27.394Z,4.82
2023-03-26T03:02:18.365Z,5.68
2023-03-26T03:04:46.433Z,6.07
2023-03-26T03:07:17.114Z,6.93
2023-03-26T03:09:46.286Z,5.32
2023-03-26T03:12:36.924Z,5.22
2023-03-26T03:15:04.591Z,6.43
2023-03-26T03:17:32.163Z,4.50
2023-03-26T03:20:00.308Z,7.30
2023-03-26T03:22:27.660Z,5.68
2023-03-26T03:24:57.740Z,5.22
2023-03-26T03:27:26.177Z,5.35
2023-03-26T03:30:09.096Z,4.18
2023-03-26T03:33:03.819Z,3.95
2023-03-26T03:35:31.948Z,4.00
2023-03-26T03:38:00.655Z,5.60
2023-03-26T03:40:31.607Z,3.88
2023-03-26T03:42:59.154Z,4.15
2023-03-26T03:45:36.257Z,5.30
2023-03-26T03:50:54.144Z,3.67
2023-03-26T03:53:41.750Z,4.22
2023-03-26T03:56:10.657Z,3.85
2023-03-26T03:59:08.861Z,3.17
2023-03-26T04:01:38.059Z,3.22
2023-03-26T04:04:11.773Z,3.65
2023-03-26T04:06:53.289Z,4.10
2023-03-26T04:09:23.710Z,3.38
2023-03-26T04:11:53.142Z,3.80
2023-03-26T04:14:33.674Z,2.90
2023-03-26T04:17:05.410Z,2.45
2023-03-26T04:19:35.471Z,2.88
2023-03-26T04:22:03.148Z,1.98
2023-03-26T04:24:40.252Z,2.67
2023-03-26T04:27:30.295Z,1.75
2023-03-26T04:30:08.290Z,1.58
2023-03-26T04:32:38.225Z,1.33
2023-03-26T04:35:07.160Z,1.63
2023-03-26T04:37:40.036Z,1.30
2023-03-26T04:40:22.087Z,1.20
2023-03-26T04:43:17.978Z,1.20
2023-03-26T04:46:03.324Z,1.05
2023-03-26T04:48:35.017Z,1.38
2023-03-26T04:51:02.596Z,0.98
2023-03-26T04:53:29.979Z,1.30
2023-03-26T04:56:43.259Z,1.73
2023-03-26T04:59:26.206Z,1.23
2023-03-26T05:01:56.942Z,1.13
2023-03-26T05:04:26.867Z,1.02
2023-03-26T05:06:54.285Z,2.00
2023-03-26T05:09:36.589Z,2.17
2023-03-26T05:12:16.561Z,1.67
2023-03-26T05:15:05.708Z,1.42
2023-03-26T05:18:02.518Z,1.65
2023-03-26T05:20:36.079Z,1.60
2023-03-26T05:23:07.447Z,1.27
2023-03-26T05:25:41.255Z,1.30
2023-03-26T05:28:19.268Z,1.55
2023-03-26T05:31:10.767Z,1.67
2023-03-26T05:33:41.050Z,1.48
2023-03-26T05:36:15.782Z,1.27
2023-03-26T05:38:49.609Z,1.08
2023-03-26T05:41:42.958Z,1.48
2023-03-26T05:44:11.026Z,0.88
2023-03-26T05:46:38.914Z,0.90
2023-03-26T05:49:06.883Z,0.70
2023-03-26T05:51:36.430Z,0.95
2023-03-26T05:54:33.182Z,1.10
2023-03-26T05:57:33.260Z,1.30
2023-03-26T06:00:19.746Z,1.10
2023-03-26T06:02:48.179Z,1.23
2023-03-26T06:05:21.506Z,1.27
2023-03-26T06:08:07.766Z,1.42
2023-03-26T06:10:39.006Z,1.48
2023-03-26T06:13:06.800Z,1.10
2023-03-26T06:15:39.114Z,1.45
2023-03-26T06:18:15.826Z,1.30
2023-03-26T06:20:56.204Z,1.10
2023-03-26T06:23:43.552Z,1.42
2023-03-26T06:26:18.001Z,1.25
2023-03-26T06:28:56.381Z,1.20
2023-03-26T06:31:46.426Z,1.10
2023-03-26T06:34:27.265Z,1.23
2023-03-26T06:36:54.760Z,1.10
2023-03-26T06:39:23.066Z,0.95
2023-03-26T06:42:13.230Z,1.23
2023-03-26T06:44:43.284Z,0.98
2023-03-26T06:47:29.375Z,0.80
2023-03-26T06:50:06.273Z,1.03
2023-03-26T06:52:54.671Z,1.20
2023-03-26T06:55:45.104Z,1.10
2023-03-26T06:58:31.018Z,0.85
2023-03-26T07:01:17.120Z,0.95
2023-03-26T07:04:03.168Z,1.40
2023-03-26T07:06:49.709Z,1.02
2023-03-26T07:09:36.078Z,1.00
2023-03-26T07:12:23.371Z,2.28
2023-03-26T07:15:20.019Z,0.88
2023-03-26T07:18:13.471Z,1.05
2023-03-26T07:20:45.210Z,0.80
2023-03-26T07:23:15.543Z,0.80
2023-03-26T07:25:55.564Z,1.00
2023-03-26T07:29:04.429Z,0.85
2023-03-26T07:31:45.568Z,1.00
2023-03-26T07:34:53.531Z,1.98
2023-03-26T07:38:18.385Z,0.98
2023-03-26T07:41:12.980Z,0.93
2023-03-26T07:44:25.350Z,1.45
2023-03-26T07:47:30.950Z,2.20
2023-03-26T07:50:21.518Z,1.58
2023-03-26T07:53:04.459Z,0.90
2023-03-26T07:56:02.674Z,1.02
2023-03-26T07:59:11.379Z,1.50
2023-03-26T08:02:41.299Z,1.15
2023-03-26T08:05:32.392Z,1.55
2023-03-26T08:08:45.881Z,1.65
2023-03-26T08:11:46.452Z,1.73
2023-03-26T08:14:37.361Z,2.50
2023-03-26T08:17:30.997Z,1.80
2023-03-26T08:19:58.622Z,1.50
2023-03-26T08:22:34.457Z,1.40
2023-03-26T08:25:11.500Z,1.33
2023-03-26T08:27:59.441Z,1.20
2023-03-26T08:30:27.625Z,1.30
2023-03-26T08:32:56.905Z,1.15
2023-03-26T08:35:25.888Z,1.25
2023-03-26T08:37:53.597Z,1.02
2023-03-26T08:40:59.151Z,1.48
2023-03-26T08:43:51.563Z,1.40
2023-03-26T08:46:38.150Z,1.45
2023-03-26T08:49:41.218Z,1.10
2023-03-26T08:52:24.592Z,1.00
2023-03-26T08:55:13.315Z,0.88
2023-03-26T08:57:59.225Z,0.95
2023-03-26T09:00:51.725Z,1.52
2023-03-26T09:03:38.460Z,1.48
2023-03-26T09:06:17.539Z,1.13
2023-03-26T09:09:04.585Z,1.48
2023-03-26T09:11:58.885Z,2.03
2023-03-26T09:14:47.143Z,1.10
2023-03-26T09:17:23.254Z,1.50
2023-03-26T09:20:12.411Z,3.97
2023-03-26T09:23:08.042Z,5.30
2023-03-26T09:25:59.796Z,6.05
2023-03-26T09:28:52.878Z,1.30
2023-03-26T09:31:41.457Z,1.05
2023-03-26T09:34:30.705Z,1.40
2023-03-26T09:37:07.374Z,1.50
2023-03-26T09:39:42.510Z,1.42
2023-03-26T09:42:37.194Z,1.80
2023-03-26T09:45:32.926Z,1.52
2023-03-26T09:48:21.462Z,1.80
2023-03-26T09:51:02.260Z,1.50
2023-03-26T09:53:58.979Z,1.40
2023-03-26T09:56:53.532Z,1.70
2023-03-26T09:59:57.787Z,1.90
2023-03-26T10:02:46.655Z,2.65
2023-03-26T10:05:20.216Z,2.22
2023-03-26T10:08:07.925Z,1.90
2023-03-26T10:13:38.268Z,3.08
2023-03-26T10:16:13.250Z,2.88
2023-03-26T10:19:03.667Z,3.38
2023-03-26T10:22:03.605Z,3.38
2023-03-26T10:25:08.263Z,2.90
2023-03-26T10:28:01.083Z,3.05
2023-03-26T10:30:54.892Z,3.17
2023-03-26T10:33:37.458Z,2.67
2023-03-26T10:36:26.991Z,2.05
2023-03-26T10:39:03.549Z,2.47
2023-03-26T10:41:31.519Z,1.90
2023-03-26T10:44:08.721Z,2.40
2023-03-26T10:46:54.079Z,1.40
2023-03-26T10:50:22.836Z,1.52
2023-03-26T10:53:00.159Z,1.73
2023-03-26T10:55:38.272Z,1.63
2023-03-26T10:58:12.854Z,2.28
2023-03-26T11:01:05.606Z,3.35
2023-03-26T11:03:52.198Z,1.80
2023-03-26T11:06:34.838Z,1.27
2023-03-26T11:09:06.183Z,1.10
2023-03-26T11:11:47.662Z,1.20
2023-03-26T11:14:34.328Z,1.58
2023-03-26T11:17:44.296Z,1.65
2023-03-26T11:20:24.200Z,1.17
2023-03-26T11:23:17.606Z,2.38
2023-03-26T11:26:17.102Z,1.23
2023-03-26T11:29:04.053Z,1.30
2023-03-26T11:31:53.909Z,1.37
2023-03-26T11:34:27.421Z,1.40
2023-03-26T11:37:04.884Z,1.38
2023-03-26T11:39:51.275Z,2.72
2023-03-26T11:42:24.114Z,1.40
2023-03-26T11:45:02.949Z,1.13
2023-03-26T11:47:45.662Z,1.63
2023-03-26T11:50:22.172Z,1.60
2023-03-26T11:52:52.460Z,1.40
2023-03-26T11:55:20.786Z,1.85
2023-03-26T11:58:06.252Z,1.40
2023-03-26T12:01:01.367Z,1.48
2023-03-26T12:03:30.426Z,1.33
2023-03-26T12:06:07.022Z,1.98
2023-03-26T12:08:39.266Z,1.70
2023-03-26T12:11:15.127Z,1.30
2023-03-26T12:13:53.396Z,0.82
2023-03-26T12:16:21.901Z,1.10
2023-03-26T12:19:09.884Z,1.05
2023-03-26T12:21:50.293Z,1.10
2023-03-26T12:24:29.581Z,1.88
2023-03-26T12:27:02.102Z,1.52
2023-03-26T12:29:34.927Z,1.63
2023-03-26T12:32:14.170Z,1.73
2023-03-26T12:34:41.871Z,1.25
2023-03-26T12:37:37.064Z,1.10
2023-03-26T12:40:26.173Z,1.63
2023-03-26T12:44:46.329Z,2.08
2023-03-26T12:45:44.332Z,1.58
2023-03-26T12:48:14.460Z,1.45
2023-03-26T12:51:05.327Z,1.52
2023-03-26T12:54:09.998Z,2.17
2023-03-26T12:57:12.453Z,2.83
2023-03-26T13:00:14.605Z,2.65
2023-03-26T13:02:42.110Z,2.58
2023-03-26T13:05:36.578Z,3.65
2023-03-26T13:08:22.834Z,4.15
2023-03-26T13:11:13.179Z,3.80
2023-03-26T13:13:54.243Z,3.55
2023-03-26T13:16:31.262Z,3.38
2023-03-26T13:19:11.683Z,2.95
2023-03-26T13:21:57.606Z,4.00
2023-03-26T13:24:43.391Z,4.18
2023-03-26T13:27:21.145Z,3.60
2023-03-26T13:30:22.876Z,2.95
2023-03-26T13:33:16.443Z,4.60
2023-03-26T13:35:50.461Z,3.38
2023-03-26T13:38:29.667Z,3.58
2023-03-26T13:41:15.949Z,3.67
2023-03-26T13:43:54.005Z,4.32
2023-03-26T13:46:21.821Z,4.20
2023-03-26T13:48:57.901Z,4.10
2023-03-26T13:51:35.755Z,4.20
2023-03-26T13:54:15.734Z,3.95
2023-03-26T13:56:49.513Z,3.63
2023-03-26T13:59:31.311Z,3.17
2023-03-26T14:02:08.150Z,3.90
2023-03-26T14:04:44.671Z,2.60
2023-03-26T14:07:36.866Z,4.55
2023-03-26T14:10:16.753Z,4.63
2023-03-26T14:13:02.632Z,4.50
2023-03-26T14:15:40.675Z,4.03
2023-03-26T14:18:42.070Z,5.28
2023-03-26T14:21:27.634Z,4.70
2023-03-26T14:24:03.831Z,6.60
2023-03-26T14:26:43.625Z,3.80
2023-03-26T14:29:18.805Z,5.30
2023-03-26T14:32:14.237Z,4.25
2023-03-26T14:35:11.992Z,5.97
2023-03-26T14:37:54.406Z,5.53
2023-03-26T14:40:22.337Z,4.88
2023-03-26T14:43:24.834Z,4.85
2023-03-26T14:45:54.893Z,6.78
2023-03-26T14:48:48.155Z,5.18
2023-03-26T14:51:40.826Z,4.30
2023-03-26T14:54:13.316Z,3.28
2023-03-26T14:57:21.509Z,4.00
2023-03-26T15:00:42.511Z,4.05
2023-03-26T15:03:09.952Z,3.67
2023-03-26T15:06:22.832Z,4.43
2023-03-26T15:09:11.857Z,3.60
2023-03-26T15:12:12.721Z,3.42
2023-03-26T15:15:10.499Z,4.85
2023-03-26T15:17:38.310Z,4.28
2023-03-26T15:20:31.970Z,4.57
2023-03-26T15:23:32.733Z,3.40
2023-03-26T15:26:31.464Z,3.38
2023-03-26T15:29:38.001Z,4.07
2023-03-26T15:32:26.013Z,3.28
2023-03-26T15:34:54.713Z,3.58
2023-03-26T15:37:49.458Z,3.22
2023-03-26T15:40:25.320Z,2.75
2023-03-26T15:43:01.764Z,3.10
2023-03-26T15:45:34.111Z,2.40
2023-03-26T15:48:32.026Z,2.58
2023-03-26T15:51:06.205Z,2.90
2023-03-26T15:53:55.434Z,2.40
2023-03-26T15:56:40.454Z,3.05
2023-03-26T15:59:12.077Z,3.55
2023-03-26T16:02:04.998Z,3.47
2023-03-26T16:04:55.870Z,3.20
2023-03-26T16:07:50.821Z,3.80
2023-03-26T16:10:44.626Z,3.58
2023-03-26T16:13:30.178Z,3.53
2023-03-26T16:16:04.098Z,3.40
2023-03-26T16:18:41.252Z,3.47
2023-03-26T16:21:34.246Z,3.55
2023-03-26T16:24:03.872Z,2.85
2023-03-26T16:27:05.366Z,3.13
2023-03-26T16:29:35.101Z,2.78
2023-03-26T16:32:31.362Z,4.75
2023-03-26T16:35:14.900Z,2.55
2023-03-26T16:37:52.609Z,3.00
2023-03-26T16:40:32.893Z,2.30
2023-03-26T16:43:27.064Z,3.67
2023-03-26T16:46:13.793Z,1.70
2023-03-26T16:49:10.621Z,2.85
2023-03-26T16:51:59.572Z,2.55
2023-03-26T16:54:50.186Z,2.50
2023-03-26T16:57:24.639Z,1.77
2023-03-26T17:00:08.234Z,2.85
2023-03-26T17:03:06.308Z,2.60
2023-03-26T17:05:38.041Z,2.17
2023-03-26T17:08:18.991Z,2.10
2023-03-26T17:11:29.882Z,2.15
2023-03-26T17:14:17.947Z,2.25
2023-03-26T17:17:03.061Z,2.20
2023-03-26T17:20:01.325Z,1.92
2023-03-26T17:25:36.576Z,1.80
2023-03-26T17:31:04.367Z,2.15
2023-03-26T17:33:34.696Z,2.13
2023-03-26T17:36:24.351Z,2.35
2023-03-26T17:39:01.818Z,1.77
2023-03-26T17:41:54.431Z,2.25
2023-03-26T17:44:49.841Z,1.83
2023-03-26T17:47:42.331Z,2.35
2023-03-26T17:50:31.629Z,2.60
2023-03-26T17:53:02.685Z,3.08
2023-03-26T17:55:33.344Z,2.30
2023-03-26T17:58:06.173Z,2.15
2023-03-26T18:00:42.523Z,2.42
2023-03-26T18:03:23.220Z,2.55
2023-03-26T18:05:56.399Z,1.70
2023-03-26T18:08:37.139Z,3.15
2023-03-26T18:11:16.781Z,2.60
2023-03-26T18:14:05.375Z,2.28
2023-03-26T18:16:40.489Z,3.58
2023-03-26T18:19:19.994Z,2.33
2023-03-26T18:21:52.966Z,2.03
2023-03-26T18:24:38.251Z,2.58
2023-03-26T18:27:12.323Z,2.10
2023-03-26T18:29:45.477Z,2.10
2023-03-26T18:32:16.781Z,1.85
2023-03-26T18:34:52.662Z,2.45
2023-03-26T18:37:34.586Z,2.38
2023-03-26T18:40:12.210Z,1.40
2023-03-26T18:42:42.074Z,2.28
2023-03-26T18:45:14.615Z,2.53
2023-03-26T18:47:43.403Z,2.67
2023-03-26T18:50:16.119Z,1.77
2023-03-26T18:52:45.279Z,2.28
2023-03-26T18:55:14.505Z,2.35
2023-03-26T18:57:42.783Z,1.98
2023-03-26T19:00:23.245Z,2.30
2023-03-26T19:03:00.884Z,3.80
2023-03-26T19:05:29.413Z,2.95
2023-03-26T19:07:57.730Z,3.08
2023-03-26T19:10:25.158Z,2.30
2023-03-26T19:13:01.064Z,2.70
2023-03-26T19:15:34.148Z,2.10
2023-03-26T19:18:13.974Z,2.20
2023-03-26T19:20:54.116Z,2.13
2023-03-26T19:23:27.783Z,1.90
2023-03-26T19:25:57.217Z,2.10
2023-03-26T19:28:35.236Z,4.53
2023-03-26T19:31:12.453Z,2.60
2023-03-26T19:33:46.518Z,3.40
2023-03-26T19:36:14.501Z,2.72
2023-03-26T19:39:02.396Z,2.72
2023-03-26T19:41:36.519Z,2.20
2023-03-26T19:44:16.610Z,2.88
2023-03-26T19:46:53.906Z,2.95
2023-03-26T19:49:32.005Z,2.45
2023-03-26T19:52:32.407Z,4.18
2023-03-26T19:55:14.474Z,2.95
2023-03-26T19:57:43.128Z,3.00
2023-03-26T20:00:13.940Z,2.00
2023-03-26T20:02:42.711Z,2.35
2023-03-26T20:05:29.043Z,1.98
2023-03-26T20:07:59.874Z,2.42
2023-03-26T20:10:27.915Z,2.92
2023-03-26T20:12:55.609Z,2.55
2023-03-26T20:15:27.985Z,2.15
2023-03-26T20:17:55.830Z,2.45
2023-03-26T20:20:24.755Z,3.58
2023-03-26T20:22:56.112Z,2.13
2023-03-26T20:25:30.246Z,2.20
2023-03-26T20:27:59.139Z,3.05
2023-03-26T20:30:37.515Z,2.63
2023-03-26T20:33:12.403Z,1.92
2023-03-26T20:35:41.533Z,2.47
2023-03-26T20:38:09.927Z,2.50
2023-03-26T20:40:38.622Z,1.40
2023-03-26T20:43:12.436Z,2.13
2023-03-26T20:45:40.613Z,2.00
2023-03-26T20:48:11.871Z,1.98
2023-03-26T20:50:50.769Z,2.78
2023-03-26T20:53:18.989Z,2.25
2023-03-26T20:55:47.437Z,1.80
2023-03-26T20:58:19.888Z,2.13
2023-03-26T21:01:01.851Z,1.80
2023-03-26T21:03:29.469Z,2.13
2023-03-26T21:06:01.238Z,1.90
2023-03-26T21:08:35.390Z,2.55
2023-03-26T21:11:29.462Z,1.77
2023-03-26T21:14:08.559Z,2.35
2023-03-26T21:16:36.409Z,1.98
2023-03-26T21:19:04.453Z,1.80
2023-03-26T21:21:42.758Z,2.05
2023-03-26T21:24:51.246Z,2.65
2023-03-26T21:27:30.208Z,1.65
2023-03-26T21:29:58.201Z,2.25
2023-03-26T21:32:26.305Z,2.00
2023-03-26T21:37:24.991Z,1.70
2023-03-26T21:39:52.557Z,2.40
2023-03-26T21:42:20.475Z,1.65
2023-03-26T21:44:48.241Z,2.25
2023-03-26T21:47:15.783Z,1.88
2023-03-26T21:49:43.394Z,2.70
2023-03-26T21:52:15.365Z,2.83
2023-03-26T21:54:46.031Z,2.95
2023-03-26T21:57:29.178Z,2.40
2023-03-26T22:00:18.449Z,2.15
2023-03-26T22:03:06.819Z,2.65
2023-03-26T22:05:37.022Z,2.05
2023-03-26T22:08:07.038Z,2.30
2023-03-26T22:10:34.678Z,2.05
2023-03-26T22:13:02.196Z,2.05
2023-03-26T22:15:31.286Z,2.25
2023-03-26T22:18:05.690Z,2.20
2023-03-26T22:20:34.055Z,1.98
2023-03-26T22:23:01.909Z,1.90
2023-03-26T22:25:29.749Z,1.92
2023-03-26T22:27:59.962Z,2.15
2023-03-26T22:30:27.782Z,1.92
2023-03-26T22:32:55.709Z,1.58
2023-03-26T22:35:23.147Z,2.35
2023-03-26T22:37:50.692Z,2.38
2023-03-26T22:40:18.466Z,1.83
2023-03-26T22:42:46.075Z,2.08
2023-03-26T22:45:17.246Z,2.28
2023-03-26T22:47:44.957Z,2.13
2023-03-26T22:50:12.525Z,1.85
2023-03-26T22:52:40.905Z,1.92
2023-03-26T22:55:08.894Z,2.25
2023-03-26T22:57:36.457Z,1.83
2023-03-26T23:00:33.077Z,1.85
2023-03-26T23:03:00.935Z,1.77
2023-03-26T23:05:28.602Z,1.85
2023-03-26T23:07:55.928Z,2.30
2023-03-26T23:10:24.054Z,2.13
2023-03-26T23:12:52.601Z,1.80
2023-03-26T23:15:20.575Z,1.20
2023-03-26T23:17:54.750Z,2.13
2023-03-26T23:20:22.898Z,1.67
2023-03-26T23:22:50.648Z,2.50
2023-03-26T23:25:17.872Z,1.95
2023-03-26T23:27:45.199Z,1.92
2023-03-26T23:30:13.350Z,4.20
2023-03-26T23:32:41.360Z,2.47
2023-03-26T23:35:09.060Z,2.00
2023-03-26T23:37:36.611Z,1.80
2023-03-26T23:40:10.213Z,1.83
2023-03-26T23:42:38.004Z,1.67
2023-03-26T23:45:06.248Z,2.50
2023-03-26T23:47:34.997Z,1.67
2023-03-26T23:50:04.096Z,1.98
2023-03-26T23:52:31.740Z,1.48
2023-03-26T23:55:02.494Z,1.83
2023-03-26T23:57:30.557Z,2.80
2023-03-26T23:59:58.380Z,2.00
